sensor_id;sensor_type;location;lat;lon;timestamp;temperature;humidity
52030;DHT22;38043;53.224;6.580;2022-09-13T00:01:37;17.90;99.90
52030;DHT22;38043;53.224;6.580;2022-09-13T00:04:03;18.00;99.90
52030;DHT22;38043;53.224;6.580;2022-09-13T00:06:29;18.00;99.90
52030;DHT22;38043;53.224;6.580;2022-09-13T00:08:54;18.00;99.90
52030;DHT22;38043;53.224;6.580;2022-09-13T00:11:25;18.00;99.90
52030;DHT22;38043;53.224;6.580;2022-09-13T00:13:52;18.00;99.90
52030;DHT22;38043;53.224;6.580;2022-09-13T00:16:20;17.90;99.90
52030;DHT22;38043;53.224;6.580;2022-09-13T00:18:45;18.00;99.90
52030;DHT22;38043;53.224;6.580;2022-09-13T00:21:14;17.90;99.90
52030;DHT22;38043;53.224;6.580;2022-09-13T00:23:48;17.90;99.90
52030;DHT22;38043;53.224;6.580;2022-09-13T00:26:24;17.90;99.90
52030;DHT22;38043;53.224;6.580;2022-09-13T00:28:55;17.90;99.90
52030;DHT22;38043;53.224;6.580;2022-09-13T00:31:22;17.90;99.90
52030;DHT22;38043;53.224;6.580;2022-09-13T00:33:49;17.90;99.90
52030;DHT22;38043;53.224;6.580;2022-09-13T00:36:15;17.90;99.90
52030;DHT22;38043;53.224;6.580;2022-09-13T00:38:41;17.80;99.90
52030;DHT22;38043;53.224;6.580;2022-09-13T00:41:12;17.80;99.90
52030;DHT22;38043;53.224;6.580;2022-09-13T00:44:05;17.90;99.90
52030;DHT22;38043;53.224;6.580;2022-09-13T00:46:51;17.80;99.90
52030;DHT22;38043;53.224;6.580;2022-09-13T00:49:18;17.80;99.90
52030;DHT22;38043;53.224;6.580;2022-09-13T00:51:49;17.60;99.90
52030;DHT22;38043;53.224;6.580;2022-09-13T00:54:18;17.80;99.90
52030;DHT22;38043;53.224;6.580;2022-09-13T00:56:50;17.80;99.90
52030;DHT22;38043;53.224;6.580;2022-09-13T00:59:33;17.70;99.90
52030;DHT22;38043;53.224;6.580;2022-09-13T01:02:01;17.70;99.90
52030;DHT22;38043;53.224;6.580;2022-09-13T01:04:29;17.70;99.90
52030;DHT22;38043;53.224;6.580;2022-09-13T01:07:00;17.70;99.90
52030;DHT22;38043;53.224;6.580;2022-09-13T01:09:27;17.70;99.90
52030;DHT22;38043;53.224;6.580;2022-09-13T01:12:01;17.70;99.90
52030;DHT22;38043;53.224;6.580;2022-09-13T01:14:28;17.70;99.90
52030;DHT22;38043;53.224;6.580;2022-09-13T01:16:54;17.70;99.90
52030;DHT22;38043;53.224;6.580;2022-09-13T01:19:20;17.70;99.90
52030;DHT22;38043;53.224;6.580;2022-09-13T01:22:06;17.60;99.90
52030;DHT22;38043;53.224;6.580;2022-09-13T01:30:20;17.60;99.90
52030;DHT22;38043;53.224;6.580;2022-09-13T01:46:41;17.60;99.90
52030;DHT22;38043;53.224;6.580;2022-09-13T01:54:33;17.60;99.90
52030;DHT22;38043;53.224;6.580;2022-09-13T01:59:45;17.60;99.90
52030;DHT22;38043;53.224;6.580;2022-09-13T02:02:31;17.60;99.90
52030;DHT22;38043;53.224;6.580;2022-09-13T02:08:14;17.60;99.90
52030;DHT22;38043;53.224;6.580;2022-09-13T02:10:45;17.60;99.90
52030;DHT22;38043;53.224;6.580;2022-09-13T02:13:19;17.60;99.90
52030;DHT22;38043;53.224;6.580;2022-09-13T02:15:48;17.60;99.90
52030;DHT22;38043;53.224;6.580;2022-09-13T02:18:31;17.60;99.90
52030;DHT22;38043;53.224;6.580;2022-09-13T02:21:02;17.60;99.90
52030;DHT22;38043;53.224;6.580;2022-09-13T02:23:42;17.60;99.90
52030;DHT22;38043;53.224;6.580;2022-09-13T02:26:11;17.60;99.90
52030;DHT22;38043;53.224;6.580;2022-09-13T02:28:47;17.60;99.90
52030;DHT22;38043;53.224;6.580;2022-09-13T02:31:16;17.60;99.90
52030;DHT22;38043;53.224;6.580;2022-09-13T02:34:32;17.60;99.90
52030;DHT22;38043;53.224;6.580;2022-09-13T02:36:51;17.60;99.90
52030;DHT22;38043;53.224;6.580;2022-09-13T02:39:28;17.60;99.90
52030;DHT22;38043;53.224;6.580;2022-09-13T02:41:55;17.60;99.90
52030;DHT22;38043;53.224;6.580;2022-09-13T02:44:34;17.60;99.90
52030;DHT22;38043;53.224;6.580;2022-09-13T02:50:32;17.70;99.90
52030;DHT22;38043;53.224;6.580;2022-09-13T02:53:21;17.70;99.90
52030;DHT22;38043;53.224;6.580;2022-09-13T02:58:45;17.70;99.90
52030;DHT22;38043;53.224;6.580;2022-09-13T03:01:13;17.70;99.90
52030;DHT22;38043;53.224;6.580;2022-09-13T03:03:39;17.70;99.90
52030;DHT22;38043;53.224;6.580;2022-09-13T03:06:05;17.70;99.90
52030;DHT22;38043;53.224;6.580;2022-09-13T03:08:31;17.80;99.90
52030;DHT22;38043;53.224;6.580;2022-09-13T03:11:10;17.90;99.90
52030;DHT22;38043;53.224;6.580;2022-09-13T03:14:07;17.90;99.90
52030;DHT22;38043;53.224;6.580;2022-09-13T03:20:29;17.60;99.90
52030;DHT22;38043;53.224;6.580;2022-09-13T03:29:05;17.30;99.90
52030;DHT22;38043;53.224;6.580;2022-09-13T03:32:19;17.40;99.90
52030;DHT22;38043;53.224;6.580;2022-09-13T03:34:42;17.30;99.90
52030;DHT22;38043;53.224;6.580;2022-09-13T03:37:31;17.30;99.90
52030;DHT22;38043;53.224;6.580;2022-09-13T03:40:04;17.30;99.90
52030;DHT22;38043;53.224;6.580;2022-09-13T03:45:09;17.40;99.90
52030;DHT22;38043;53.224;6.580;2022-09-13T03:47:36;17.40;99.90
52030;DHT22;38043;53.224;6.580;2022-09-13T03:50:06;17.40;99.90
52030;DHT22;38043;53.224;6.580;2022-09-13T03:52:33;17.40;99.90
52030;DHT22;38043;53.224;6.580;2022-09-13T03:54:59;17.40;99.90
52030;DHT22;38043;53.224;6.580;2022-09-13T03:57:25;17.40;99.90
52030;DHT22;38043;53.224;6.580;2022-09-13T03:59:56;17.40;99.90
52030;DHT22;38043;53.224;6.580;2022-09-13T04:02:23;17.50;99.90
52030;DHT22;38043;53.224;6.580;2022-09-13T04:04:50;17.40;99.90
52030;DHT22;38043;53.224;6.580;2022-09-13T04:07:21;17.50;99.90
52030;DHT22;38043;53.224;6.580;2022-09-13T04:09:47;17.40;99.90
52030;DHT22;38043;53.224;6.580;2022-09-13T04:12:15;17.50;99.90
52030;DHT22;38043;53.224;6.580;2022-09-13T04:14:41;17.40;99.90
52030;DHT22;38043;53.224;6.580;2022-09-13T04:17:11;17.40;99.90
52030;DHT22;38043;53.224;6.580;2022-09-13T04:19:36;17.40;99.90
52030;DHT22;38043;53.224;6.580;2022-09-13T04:22:02;17.40;99.90
52030;DHT22;38043;53.224;6.580;2022-09-13T04:24:29;17.40;99.90
52030;DHT22;38043;53.224;6.580;2022-09-13T04:26:55;17.40;99.90
52030;DHT22;38043;53.224;6.580;2022-09-13T04:29:23;17.30;99.90
52030;DHT22;38043;53.224;6.580;2022-09-13T04:31:50;17.30;99.90
52030;DHT22;38043;53.224;6.580;2022-09-13T04:34:16;17.30;99.90
52030;DHT22;38043;53.224;6.580;2022-09-13T04:36:44;17.30;99.90
52030;DHT22;38043;53.224;6.580;2022-09-13T04:39:10;17.30;99.90
52030;DHT22;38043;53.224;6.580;2022-09-13T04:41:39;17.30;99.90
52030;DHT22;38043;53.224;6.580;2022-09-13T04:44:04;17.30;99.90
52030;DHT22;38043;53.224;6.580;2022-09-13T04:46:30;17.30;99.90
52030;DHT22;38043;53.224;6.580;2022-09-13T04:48:56;17.30;99.90
52030;DHT22;38043;53.224;6.580;2022-09-13T04:51:21;17.40;99.90
52030;DHT22;38043;53.224;6.580;2022-09-13T04:53:51;17.30;99.90
52030;DHT22;38043;53.224;6.580;2022-09-13T04:56:23;17.30;99.90
52030;DHT22;38043;53.224;6.580;2022-09-13T04:58:55;17.30;99.90
52030;DHT22;38043;53.224;6.580;2022-09-13T05:01:21;17.30;99.90
52030;DHT22;38043;53.224;6.580;2022-09-13T05:03:49;17.30;99.90
52030;DHT22;38043;53.224;6.580;2022-09-13T05:06:16;17.30;99.90
52030;DHT22;38043;53.224;6.580;2022-09-13T05:08:53;17.20;99.90
52030;DHT22;38043;53.224;6.580;2022-09-13T05:11:23;17.30;99.90
52030;DHT22;38043;53.224;6.580;2022-09-13T05:13:50;17.30;99.90
52030;DHT22;38043;53.224;6.580;2022-09-13T05:16:19;17.30;99.90
52030;DHT22;38043;53.224;6.580;2022-09-13T05:18:45;17.30;99.90
52030;DHT22;38043;53.224;6.580;2022-09-13T05:21:11;17.30;99.90
52030;DHT22;38043;53.224;6.580;2022-09-13T05:23:36;17.30;99.90
52030;DHT22;38043;53.224;6.580;2022-09-13T05:26:04;17.30;99.90
52030;DHT22;38043;53.224;6.580;2022-09-13T05:28:32;17.30;99.90
52030;DHT22;38043;53.224;6.580;2022-09-13T05:33:25;17.30;99.90
52030;DHT22;38043;53.224;6.580;2022-09-13T05:35:51;17.40;99.90
52030;DHT22;38043;53.224;6.580;2022-09-13T05:38:17;17.40;99.90
52030;DHT22;38043;53.224;6.580;2022-09-13T05:40:43;17.30;99.90
52030;DHT22;38043;53.224;6.580;2022-09-13T05:43:12;17.20;99.90
52030;DHT22;38043;53.224;6.580;2022-09-13T05:45:41;17.20;99.90
52030;DHT22;38043;53.224;6.580;2022-09-13T05:48:07;17.30;99.90
52030;DHT22;38043;53.224;6.580;2022-09-13T05:50:36;17.20;99.90
52030;DHT22;38043;53.224;6.580;2022-09-13T05:53:02;17.00;99.90
52030;DHT22;38043;53.224;6.580;2022-09-13T05:55:28;17.10;99.90
52030;DHT22;38043;53.224;6.580;2022-09-13T05:57:53;17.20;99.90
52030;DHT22;38043;53.224;6.580;2022-09-13T06:00:19;17.10;99.90
52030;DHT22;38043;53.224;6.580;2022-09-13T06:02:45;17.10;99.90
52030;DHT22;38043;53.224;6.580;2022-09-13T06:05:11;17.20;99.90
52030;DHT22;38043;53.224;6.580;2022-09-13T06:07:41;17.20;99.90
52030;DHT22;38043;53.224;6.580;2022-09-13T06:10:10;17.30;99.90
52030;DHT22;38043;53.224;6.580;2022-09-13T06:12:36;17.10;99.90
52030;DHT22;38043;53.224;6.580;2022-09-13T06:15:03;17.20;99.90
52030;DHT22;38043;53.224;6.580;2022-09-13T06:17:28;17.20;99.90
52030;DHT22;38043;53.224;6.580;2022-09-13T06:19:54;17.20;99.90
52030;DHT22;38043;53.224;6.580;2022-09-13T06:22:21;17.20;99.90
52030;DHT22;38043;53.224;6.580;2022-09-13T06:24:47;17.30;99.90
52030;DHT22;38043;53.224;6.580;2022-09-13T06:27:13;17.30;99.90
52030;DHT22;38043;53.224;6.580;2022-09-13T06:29:38;17.20;99.90
52030;DHT22;38043;53.224;6.580;2022-09-13T06:32:04;17.40;99.90
52030;DHT22;38043;53.224;6.580;2022-09-13T06:34:30;17.30;99.90
52030;DHT22;38043;53.224;6.580;2022-09-13T06:36:55;17.30;99.90
52030;DHT22;38043;53.224;6.580;2022-09-13T06:39:21;17.40;99.90
52030;DHT22;38043;53.224;6.580;2022-09-13T06:41:50;17.40;99.90
52030;DHT22;38043;53.224;6.580;2022-09-13T06:44:15;17.50;99.90
52030;DHT22;38043;53.224;6.580;2022-09-13T06:46:41;17.50;99.90
52030;DHT22;38043;53.224;6.580;2022-09-13T06:49:08;17.50;99.90
52030;DHT22;38043;53.224;6.580;2022-09-13T06:51:35;17.50;99.90
52030;DHT22;38043;53.224;6.580;2022-09-13T06:54:01;17.60;99.90
52030;DHT22;38043;53.224;6.580;2022-09-13T06:56:33;17.70;99.90
52030;DHT22;38043;53.224;6.580;2022-09-13T06:59:01;18.00;99.90
52030;DHT22;38043;53.224;6.580;2022-09-13T07:01:37;18.20;99.90
52030;DHT22;38043;53.224;6.580;2022-09-13T07:04:08;18.30;99.90
52030;DHT22;38043;53.224;6.580;2022-09-13T07:06:37;18.50;99.90
52030;DHT22;38043;53.224;6.580;2022-09-13T07:09:05;18.60;99.90
52030;DHT22;38043;53.224;6.580;2022-09-13T07:11:35;18.60;99.90
52030;DHT22;38043;53.224;6.580;2022-09-13T07:14:01;18.50;99.90
52030;DHT22;38043;53.224;6.580;2022-09-13T07:16:30;18.50;99.90
52030;DHT22;38043;53.224;6.580;2022-09-13T07:19:02;18.40;99.90
52030;DHT22;38043;53.224;6.580;2022-09-13T07:21:30;18.40;99.90
52030;DHT22;38043;53.224;6.580;2022-09-13T07:23:57;18.40;99.90
52030;DHT22;38043;53.224;6.580;2022-09-13T07:26:24;18.40;99.90
52030;DHT22;38043;53.224;6.580;2022-09-13T07:28:52;18.40;99.90
52030;DHT22;38043;53.224;6.580;2022-09-13T07:31:20;18.40;99.90
52030;DHT22;38043;53.224;6.580;2022-09-13T07:33:49;18.30;99.90
52030;DHT22;38043;53.224;6.580;2022-09-13T07:36:17;18.20;99.90
52030;DHT22;38043;53.224;6.580;2022-09-13T07:38:43;18.20;99.90
52030;DHT22;38043;53.224;6.580;2022-09-13T07:41:15;18.20;99.90
52030;DHT22;38043;53.224;6.580;2022-09-13T07:43:41;18.40;99.90
52030;DHT22;38043;53.224;6.580;2022-09-13T07:46:10;18.50;99.90
52030;DHT22;38043;53.224;6.580;2022-09-13T07:48:38;18.70;99.90
52030;DHT22;38043;53.224;6.580;2022-09-13T07:51:15;18.90;99.90
52030;DHT22;38043;53.224;6.580;2022-09-13T07:53:43;18.90;99.90
52030;DHT22;38043;53.224;6.580;2022-09-13T07:56:18;18.90;99.90
52030;DHT22;38043;53.224;6.580;2022-09-13T07:58:46;19.00;99.90
52030;DHT22;38043;53.224;6.580;2022-09-13T08:01:20;19.00;99.90
52030;DHT22;38043;53.224;6.580;2022-09-13T08:03:54;19.10;99.90
52030;DHT22;38043;53.224;6.580;2022-09-13T08:06:20;19.30;99.90
52030;DHT22;38043;53.224;6.580;2022-09-13T08:08:46;19.20;99.90
52030;DHT22;38043;53.224;6.580;2022-09-13T08:11:32;19.30;99.90
52030;DHT22;38043;53.224;6.580;2022-09-13T08:13:59;19.00;99.90
52030;DHT22;38043;53.224;6.580;2022-09-13T08:16:27;19.10;99.90
52030;DHT22;38043;53.224;6.580;2022-09-13T08:18:55;19.00;99.90
52030;DHT22;38043;53.224;6.580;2022-09-13T08:21:21;18.90;99.90
52030;DHT22;38043;53.224;6.580;2022-09-13T08:23:47;18.90;99.90
52030;DHT22;38043;53.224;6.580;2022-09-13T08:26:14;19.00;99.90
52030;DHT22;38043;53.224;6.580;2022-09-13T08:28:40;19.10;99.90
52030;DHT22;38043;53.224;6.580;2022-09-13T08:31:11;19.20;99.90
52030;DHT22;38043;53.224;6.580;2022-09-13T08:33:38;19.40;99.90
52030;DHT22;38043;53.224;6.580;2022-09-13T08:36:04;19.50;99.90
52030;DHT22;38043;53.224;6.580;2022-09-13T08:38:33;19.50;99.90
52030;DHT22;38043;53.224;6.580;2022-09-13T08:41:02;19.30;99.90
52030;DHT22;38043;53.224;6.580;2022-09-13T08:43:43;19.20;99.90
52030;DHT22;38043;53.224;6.580;2022-09-13T08:48:46;19.50;99.90
52030;DHT22;38043;53.224;6.580;2022-09-13T08:51:36;19.60;99.90
52030;DHT22;38043;53.224;6.580;2022-09-13T08:54:03;19.70;99.90
52030;DHT22;38043;53.224;6.580;2022-09-13T08:57:00;19.70;99.90
52030;DHT22;38043;53.224;6.580;2022-09-13T08:59:46;19.80;99.90
52030;DHT22;38043;53.224;6.580;2022-09-13T09:02:34;19.90;99.90
52030;DHT22;38043;53.224;6.580;2022-09-13T09:07:41;19.90;99.90
52030;DHT22;38043;53.224;6.580;2022-09-13T09:10:20;19.80;99.90
52030;DHT22;38043;53.224;6.580;2022-09-13T09:12:56;20.00;99.90
52030;DHT22;38043;53.224;6.580;2022-09-13T09:16:10;20.20;99.90
52030;DHT22;38043;53.224;6.580;2022-09-13T09:18:41;20.30;99.90
52030;DHT22;38043;53.224;6.580;2022-09-13T09:21:11;20.60;99.90
52030;DHT22;38043;53.224;6.580;2022-09-13T09:23:49;20.70;99.90
52030;DHT22;38043;53.224;6.580;2022-09-13T09:26:22;20.60;99.30
52030;DHT22;38043;53.224;6.580;2022-09-13T09:28:50;20.50;99.30
52030;DHT22;38043;53.224;6.580;2022-09-13T09:37:07;20.80;99.00
52030;DHT22;38043;53.224;6.580;2022-09-13T09:39:37;20.80;99.00
52030;DHT22;38043;53.224;6.580;2022-09-13T09:42:13;20.70;99.50
52030;DHT22;38043;53.224;6.580;2022-09-13T09:44:44;21.00;99.90
52030;DHT22;38043;53.224;6.580;2022-09-13T09:47:37;21.30;98.10
52030;DHT22;38043;53.224;6.580;2022-09-13T09:50:25;21.30;98.60
52030;DHT22;38043;53.224;6.580;2022-09-13T09:53:15;21.10;97.70
52030;DHT22;38043;53.224;6.580;2022-09-13T10:01:02;20.80;97.70
52030;DHT22;38043;53.224;6.580;2022-09-13T10:03:32;20.70;98.50
52030;DHT22;38043;53.224;6.580;2022-09-13T10:06:11;20.50;99.30
52030;DHT22;38043;53.224;6.580;2022-09-13T10:08:39;20.50;99.60
52030;DHT22;38043;53.224;6.580;2022-09-13T10:11:07;20.40;99.20
52030;DHT22;38043;53.224;6.580;2022-09-13T10:13:33;20.30;99.10
52030;DHT22;38043;53.224;6.580;2022-09-13T10:16:20;20.30;99.30
52030;DHT22;38043;53.224;6.580;2022-09-13T10:18:49;20.30;99.80
52030;DHT22;38043;53.224;6.580;2022-09-13T10:23:45;21.20;98.70
52030;DHT22;38043;53.224;6.580;2022-09-13T10:28:55;21.90;96.30
52030;DHT22;38043;53.224;6.580;2022-09-13T10:31:39;22.20;94.80
52030;DHT22;38043;53.224;6.580;2022-09-13T10:34:13;21.90;94.90
52030;DHT22;38043;53.224;6.580;2022-09-13T10:36:59;21.50;94.40
52030;DHT22;38043;53.224;6.580;2022-09-13T10:39:27;21.20;96.20
52030;DHT22;38043;53.224;6.580;2022-09-13T10:42:00;21.50;97.20
52030;DHT22;38043;53.224;6.580;2022-09-13T10:44:31;22.00;95.50
52030;DHT22;38043;53.224;6.580;2022-09-13T10:47:01;22.40;95.90
52030;DHT22;38043;53.224;6.580;2022-09-13T10:49:47;22.60;93.10
52030;DHT22;38043;53.224;6.580;2022-09-13T10:52:43;22.40;93.10
52030;DHT22;38043;53.224;6.580;2022-09-13T10:57:49;22.90;93.00
52030;DHT22;38043;53.224;6.580;2022-09-13T11:00:22;23.10;91.00
52030;DHT22;38043;53.224;6.580;2022-09-13T11:03:21;22.90;91.00
52030;DHT22;38043;53.224;6.580;2022-09-13T11:22:51;23.60;86.80
52030;DHT22;38043;53.224;6.580;2022-09-13T11:25:27;23.30;85.70
52030;DHT22;38043;53.224;6.580;2022-09-13T11:42:22;22.40;90.70
52030;DHT22;38043;53.224;6.580;2022-09-13T11:47:57;22.80;91.40
52030;DHT22;38043;53.224;6.580;2022-09-13T11:53:22;23.30;89.10
52030;DHT22;38043;53.224;6.580;2022-09-13T11:56:02;23.30;87.90
52030;DHT22;38043;53.224;6.580;2022-09-13T11:58:52;23.30;88.40
52030;DHT22;38043;53.224;6.580;2022-09-13T12:01:33;23.60;87.70
52030;DHT22;38043;53.224;6.580;2022-09-13T12:06:42;23.80;86.50
52030;DHT22;38043;53.224;6.580;2022-09-13T12:09:16;23.80;87.70
52030;DHT22;38043;53.224;6.580;2022-09-13T12:11:49;23.80;85.70
52030;DHT22;38043;53.224;6.580;2022-09-13T12:14:21;23.90;87.10
52030;DHT22;38043;53.224;6.580;2022-09-13T12:16:50;24.20;87.10
52030;DHT22;38043;53.224;6.580;2022-09-13T12:19:24;24.40;87.00
52030;DHT22;38043;53.224;6.580;2022-09-13T12:21:52;24.30;84.70
52030;DHT22;38043;53.224;6.580;2022-09-13T12:24:37;24.00;86.10
52030;DHT22;38043;53.224;6.580;2022-09-13T12:29:54;23.80;89.20
52030;DHT22;38043;53.224;6.580;2022-09-13T12:32:21;24.10;87.50
52030;DHT22;38043;53.224;6.580;2022-09-13T12:35:29;24.10;87.20
52030;DHT22;38043;53.224;6.580;2022-09-13T12:38:33;23.90;86.40
52030;DHT22;38043;53.224;6.580;2022-09-13T12:57:32;23.40;86.70
52030;DHT22;38043;53.224;6.580;2022-09-13T13:05:24;22.80;87.70
52030;DHT22;38043;53.224;6.580;2022-09-13T13:07:55;22.50;87.70
52030;DHT22;38043;53.224;6.580;2022-09-13T13:10:31;22.40;88.60
52030;DHT22;38043;53.224;6.580;2022-09-13T13:26:56;21.30;90.40
52030;DHT22;38043;53.224;6.580;2022-09-13T13:34:41;21.20;90.50
52030;DHT22;38043;53.224;6.580;2022-09-13T13:39:35;21.30;90.60
52030;DHT22;38043;53.224;6.580;2022-09-13T13:42:24;21.30;90.20
52030;DHT22;38043;53.224;6.580;2022-09-13T13:50:07;21.10;90.30
52030;DHT22;38043;53.224;6.580;2022-09-13T13:52:37;20.90;89.80
52030;DHT22;38043;53.224;6.580;2022-09-13T13:55:27;20.90;89.20
52030;DHT22;38043;53.224;6.580;2022-09-13T13:58:03;20.90;89.60
52030;DHT22;38043;53.224;6.580;2022-09-13T14:00:35;20.90;90.00
52030;DHT22;38043;53.224;6.580;2022-09-13T14:03:16;21.00;90.10
52030;DHT22;38043;53.224;6.580;2022-09-13T14:06:10;21.00;90.70
52030;DHT22;38043;53.224;6.580;2022-09-13T14:09:03;20.90;90.60
52030;DHT22;38043;53.224;6.580;2022-09-13T14:17:23;20.50;91.20
52030;DHT22;38043;53.224;6.580;2022-09-13T14:19:59;20.40;91.40
52030;DHT22;38043;53.224;6.580;2022-09-13T14:22:29;20.40;91.00
52030;DHT22;38043;53.224;6.580;2022-09-13T14:24:55;20.30;91.40
52030;DHT22;38043;53.224;6.580;2022-09-13T14:27:35;20.30;91.10
52030;DHT22;38043;53.224;6.580;2022-09-13T14:30:26;20.20;91.60
52030;DHT22;38043;53.224;6.580;2022-09-13T14:32:56;20.20;91.70
52030;DHT22;38043;53.224;6.580;2022-09-13T14:35:55;20.30;90.80
52030;DHT22;38043;53.224;6.580;2022-09-13T14:38:25;20.30;91.10
52030;DHT22;38043;53.224;6.580;2022-09-13T14:40:59;20.20;91.60
52030;DHT22;38043;53.224;6.580;2022-09-13T14:43:27;20.20;91.10
52030;DHT22;38043;53.224;6.580;2022-09-13T14:46:01;20.20;91.00
52030;DHT22;38043;53.224;6.580;2022-09-13T14:51:27;19.90;91.50
52030;DHT22;38043;53.224;6.580;2022-09-13T14:54:16;19.80;91.00
52030;DHT22;38043;53.224;6.580;2022-09-13T14:56:50;19.70;91.10
52030;DHT22;38043;53.224;6.580;2022-09-13T14:59:30;19.70;90.80
52030;DHT22;38043;53.224;6.580;2022-09-13T15:02:03;19.60;90.50
52030;DHT22;38043;53.224;6.580;2022-09-13T15:04:29;19.60;90.70
52030;DHT22;38043;53.224;6.580;2022-09-13T15:07:17;19.60;90.60
52030;DHT22;38043;53.224;6.580;2022-09-13T15:09:44;19.60;91.10
52030;DHT22;38043;53.224;6.580;2022-09-13T15:12:23;19.50;91.20
52030;DHT22;38043;53.224;6.580;2022-09-13T15:20:52;19.60;91.40
52030;DHT22;38043;53.224;6.580;2022-09-13T15:25:56;19.50;92.20
52030;DHT22;38043;53.224;6.580;2022-09-13T15:31:05;19.50;92.40
52030;DHT22;38043;53.224;6.580;2022-09-13T15:33:33;19.40;92.40
52030;DHT22;38043;53.224;6.580;2022-09-13T15:39:00;19.30;92.20
52030;DHT22;38043;53.224;6.580;2022-09-13T15:41:37;19.30;92.40
52030;DHT22;38043;53.224;6.580;2022-09-13T15:44:05;19.30;92.50
52030;DHT22;38043;53.224;6.580;2022-09-13T15:46:36;19.30;92.40
52030;DHT22;38043;53.224;6.580;2022-09-13T15:49:14;19.30;92.50
52030;DHT22;38043;53.224;6.580;2022-09-13T15:51:41;19.20;92.50
52030;DHT22;38043;53.224;6.580;2022-09-13T15:54:15;19.30;92.40
52030;DHT22;38043;53.224;6.580;2022-09-13T15:56:44;19.40;92.10
52030;DHT22;38043;53.224;6.580;2022-09-13T15:59:16;19.40;91.80
52030;DHT22;38043;53.224;6.580;2022-09-13T16:01:42;19.40;91.80
52030;DHT22;38043;53.224;6.580;2022-09-13T16:04:09;19.40;92.10
52030;DHT22;38043;53.224;6.580;2022-09-13T16:06:35;19.40;92.30
52030;DHT22;38043;53.224;6.580;2022-09-13T16:09:01;19.30;92.10
52030;DHT22;38043;53.224;6.580;2022-09-13T16:11:27;19.30;92.40
52030;DHT22;38043;53.224;6.580;2022-09-13T16:13:53;19.30;91.70
52030;DHT22;38043;53.224;6.580;2022-09-13T16:16:19;19.30;92.00
52030;DHT22;38043;53.224;6.580;2022-09-13T16:18:44;19.20;92.50
52030;DHT22;38043;53.224;6.580;2022-09-13T16:21:10;19.10;92.50
52030;DHT22;38043;53.224;6.580;2022-09-13T16:23:35;19.10;92.90
52030;DHT22;38043;53.224;6.580;2022-09-13T16:26:03;19.00;93.20
52030;DHT22;38043;53.224;6.580;2022-09-13T16:28:30;19.10;93.40
52030;DHT22;38043;53.224;6.580;2022-09-13T16:30:55;19.00;93.60
52030;DHT22;38043;53.224;6.580;2022-09-13T16:33:21;18.90;93.70
52030;DHT22;38043;53.224;6.580;2022-09-13T16:35:50;18.90;93.70
52030;DHT22;38043;53.224;6.580;2022-09-13T16:38:15;18.90;93.90
52030;DHT22;38043;53.224;6.580;2022-09-13T16:40:44;18.80;94.20
52030;DHT22;38043;53.224;6.580;2022-09-13T16:43:10;18.80;95.00
52030;DHT22;38043;53.224;6.580;2022-09-13T16:45:38;18.80;95.20
52030;DHT22;38043;53.224;6.580;2022-09-13T16:48:05;18.80;95.50
52030;DHT22;38043;53.224;6.580;2022-09-13T16:50:30;18.80;95.70
52030;DHT22;38043;53.224;6.580;2022-09-13T16:52:56;18.80;95.80
52030;DHT22;38043;53.224;6.580;2022-09-13T16:55:22;18.70;95.70
52030;DHT22;38043;53.224;6.580;2022-09-13T16:57:48;18.70;95.60
52030;DHT22;38043;53.224;6.580;2022-09-13T17:00:17;18.60;95.80
52030;DHT22;38043;53.224;6.580;2022-09-13T17:02:45;18.60;95.80
52030;DHT22;38043;53.224;6.580;2022-09-13T17:05:11;18.50;95.90
52030;DHT22;38043;53.224;6.580;2022-09-13T17:07:38;18.50;95.90
52030;DHT22;38043;53.224;6.580;2022-09-13T17:10:05;18.40;96.10
52030;DHT22;38043;53.224;6.580;2022-09-13T17:12:32;18.40;96.20
52030;DHT22;38043;53.224;6.580;2022-09-13T17:14:57;18.40;96.30
52030;DHT22;38043;53.224;6.580;2022-09-13T17:17:23;18.30;96.20
52030;DHT22;38043;53.224;6.580;2022-09-13T17:19:49;18.30;96.50
52030;DHT22;38043;53.224;6.580;2022-09-13T17:22:15;18.20;96.30
52030;DHT22;38043;53.224;6.580;2022-09-13T17:24:41;18.20;96.30
52030;DHT22;38043;53.224;6.580;2022-09-13T17:27:07;18.10;96.30
52030;DHT22;38043;53.224;6.580;2022-09-13T17:29:34;18.00;96.30
52030;DHT22;38043;53.224;6.580;2022-09-13T17:32:01;18.00;96.30
52030;DHT22;38043;53.224;6.580;2022-09-13T17:34:27;17.90;96.40
52030;DHT22;38043;53.224;6.580;2022-09-13T17:36:55;17.90;96.50
52030;DHT22;38043;53.224;6.580;2022-09-13T17:39:21;17.90;96.80
52030;DHT22;38043;53.224;6.580;2022-09-13T17:41:47;17.70;97.20
52030;DHT22;38043;53.224;6.580;2022-09-13T17:44:14;17.70;96.90
52030;DHT22;38043;53.224;6.580;2022-09-13T17:46:40;17.70;96.90
52030;DHT22;38043;53.224;6.580;2022-09-13T17:49:06;17.60;97.10
52030;DHT22;38043;53.224;6.580;2022-09-13T17:51:32;17.60;97.30
52030;DHT22;38043;53.224;6.580;2022-09-13T17:54:04;17.60;97.30
52030;DHT22;38043;53.224;6.580;2022-09-13T17:56:38;17.60;97.40
52030;DHT22;38043;53.224;6.580;2022-09-13T17:59:09;17.60;97.30
52030;DHT22;38043;53.224;6.580;2022-09-13T18:01:56;17.60;97.20
52030;DHT22;38043;53.224;6.580;2022-09-13T18:04:25;17.60;97.60
52030;DHT22;38043;53.224;6.580;2022-09-13T18:06:52;17.60;97.40
52030;DHT22;38043;53.224;6.580;2022-09-13T18:09:20;17.50;97.60
52030;DHT22;38043;53.224;6.580;2022-09-13T18:11:46;17.50;97.50
52030;DHT22;38043;53.224;6.580;2022-09-13T18:14:14;17.60;97.60
52030;DHT22;38043;53.224;6.580;2022-09-13T18:16:40;17.50;97.70
52030;DHT22;38043;53.224;6.580;2022-09-13T18:19:06;17.50;97.90
52030;DHT22;38043;53.224;6.580;2022-09-13T18:21:32;17.50;97.80
52030;DHT22;38043;53.224;6.580;2022-09-13T18:23:59;17.60;97.70
52030;DHT22;38043;53.224;6.580;2022-09-13T18:26:26;17.60;97.70
52030;DHT22;38043;53.224;6.580;2022-09-13T18:29:00;17.50;98.00
52030;DHT22;38043;53.224;6.580;2022-09-13T18:31:28;17.50;97.80
52030;DHT22;38043;53.224;6.580;2022-09-13T18:33:56;17.50;97.70
52030;DHT22;38043;53.224;6.580;2022-09-13T18:36:22;17.50;97.90
52030;DHT22;38043;53.224;6.580;2022-09-13T18:38:48;17.50;98.30
52030;DHT22;38043;53.224;6.580;2022-09-13T18:41:19;17.50;98.20
52030;DHT22;38043;53.224;6.580;2022-09-13T18:43:47;17.50;98.10
52030;DHT22;38043;53.224;6.580;2022-09-13T18:46:15;17.40;98.10
52030;DHT22;38043;53.224;6.580;2022-09-13T18:48:46;17.50;98.30
52030;DHT22;38043;53.224;6.580;2022-09-13T18:51:14;17.40;98.30
52030;DHT22;38043;53.224;6.580;2022-09-13T18:53:41;17.40;98.40
52030;DHT22;38043;53.224;6.580;2022-09-13T18:56:10;17.40;98.50
52030;DHT22;38043;53.224;6.580;2022-09-13T18:58:37;17.40;98.60
52030;DHT22;38043;53.224;6.580;2022-09-13T19:01:13;17.50;98.60
52030;DHT22;38043;53.224;6.580;2022-09-13T19:03:50;17.40;98.60
52030;DHT22;38043;53.224;6.580;2022-09-13T19:08:51;17.30;99.00